createdAt,value
2023-01-04T00:01:25.983Z,76.40
2023-01-04T00:03:53.980Z,76.40
2023-01-04T00:06:22.650Z,76.60
2023-01-04T00:08:50.592Z,76.60
2023-01-04T00:11:21.764Z,76.60
2023-01-04T00:13:52.100Z,76.40
2023-01-04T00:16:21.881Z,76.40
2023-01-04T00:18:50.645Z,76.60
2023-01-04T00:21:21.713Z,76.70
2023-01-04T00:23:51.505Z,76.70
2023-01-04T00:26:22.279Z,76.60
2023-01-04T00:28:54.763Z,76.40
2023-01-04T00:31:24.464Z,76.40
2023-01-04T00:33:54.893Z,76.40
2023-01-04T00:36:23.289Z,76.60
2023-01-04T00:39:07.482Z,76.40
2023-01-04T00:44:27.022Z,76.50
2023-01-04T00:46:55.057Z,76.40
2023-01-04T00:49:23.094Z,76.30
2023-01-04T00:51:51.247Z,76.30
2023-01-04T00:54:20.165Z,76.30
2023-01-04T00:56:50.168Z,76.30
2023-01-04T00:59:20.384Z,76.50
2023-01-04T01:01:48.930Z,76.50
2023-01-04T01:04:19.771Z,76.40
2023-01-04T01:06:48.134Z,76.30
2023-01-04T01:09:16.803Z,76.30
2023-01-04T01:11:44.733Z,76.20
2023-01-04T01:14:18.775Z,76.10
2023-01-04T01:16:57.564Z,76.20
2023-01-04T01:19:27.462Z,76.40
2023-01-04T01:21:56.929Z,76.10
2023-01-04T01:24:25.037Z,76.10
2023-01-04T01:26:52.996Z,76.30
2023-01-04T01:29:22.197Z,76.30
2023-01-04T01:31:50.405Z,76.30
2023-01-04T01:34:18.364Z,76.20
2023-01-04T01:36:46.170Z,76.10
2023-01-04T01:39:14.044Z,76.20
2023-01-04T01:41:42.178Z,76.40
2023-01-04T01:44:43.955Z,76.40
2023-01-04T01:47:16.425Z,76.60
2023-01-04T01:49:47.588Z,76.60
2023-01-04T01:52:18.728Z,76.50
2023-01-04T01:54:49.881Z,76.60
2023-01-04T01:57:20.500Z,76.70
2023-01-04T01:59:51.141Z,76.70
2023-01-04T02:02:20.751Z,76.80
2023-01-04T02:04:51.571Z,76.90
2023-01-04T02:07:22.128Z,77.00
2023-01-04T02:09:51.064Z,77.10
2023-01-04T02:12:19.178Z,77.00
2023-01-04T02:14:49.954Z,77.10
2023-01-04T02:17:30.790Z,77.20
2023-01-04T02:20:41.154Z,77.20
2023-01-04T02:24:06.054Z,77.20
2023-01-04T02:27:07.403Z,77.20
2023-01-04T02:30:05.161Z,77.20
2023-01-04T02:32:47.447Z,77.20
2023-01-04T02:35:22.532Z,77.10
2023-01-04T02:37:59.179Z,77.10
2023-01-04T02:40:33.918Z,77.20
2023-01-04T02:43:40.580Z,77.30
2023-01-04T02:46:13.429Z,77.40
2023-01-04T02:49:00.440Z,77.30
2023-01-04T02:51:30.844Z,77.40
2023-01-04T02:54:01.755Z,77.40
2023-01-04T02:56:41.211Z,77.50
2023-01-04T02:59:24.522Z,77.50
2023-01-04T03:02:21.251Z,77.50
2023-01-04T03:05:17.773Z,77.40
2023-01-04T03:07:52.797Z,77.60
2023-01-04T03:10:26.048Z,77.50
2023-01-04T03:13:00.605Z,77.50
2023-01-04T03:15:32.584Z,77.60
2023-01-04T03:18:04.018Z,77.60
2023-01-04T03:20:33.506Z,77.50
2023-01-04T03:23:23.069Z,77.60
2023-01-04T03:26:13.265Z,77.60
2023-01-04T03:29:02.398Z,77.50
2023-01-04T03:31:52.635Z,77.50
2023-01-04T03:34:50.548Z,77.60
2023-01-04T03:37:24.534Z,77.50
2023-01-04T03:40:22.265Z,77.50
2023-01-04T03:43:15.284Z,77.60
2023-01-04T03:46:05.916Z,77.60
2023-01-04T03:48:39.867Z,77.70
2023-01-04T03:51:15.458Z,77.80
2023-01-04T03:53:52.914Z,77.70
2023-01-04T03:56:23.001Z,77.70
2023-01-04T03:58:51.205Z,77.70
2023-01-04T04:01:20.948Z,77.70
2023-01-04T04:04:06.457Z,77.70
2023-01-04T04:06:51.870Z,77.80
2023-01-04T04:09:21.383Z,77.70
2023-01-04T04:11:49.498Z,77.80
2023-01-04T04:14:17.394Z,77.90
2023-01-04T04:16:45.288Z,78.00
2023-01-04T04:19:13.184Z,78.00
2023-01-04T04:21:41.301Z,78.10
2023-01-04T04:24:24.330Z,78.10
2023-01-04T04:26:54.723Z,78.10
2023-01-04T04:29:22.896Z,78.10
2023-01-04T04:31:50.936Z,78.00
2023-01-04T04:34:18.906Z,78.00
2023-01-04T04:36:46.795Z,78.00
2023-01-04T04:39:14.687Z,78.00
2023-01-04T04:41:42.044Z,78.10
2023-01-04T04:44:13.573Z,78.10
2023-01-04T04:46:42.002Z,78.00
2023-01-04T04:49:11.072Z,78.00
2023-01-04T04:51:39.221Z,78.10
2023-01-04T04:54:08.777Z,78.00
2023-01-04T04:56:37.865Z,78.10
2023-01-04T04:59:06.358Z,77.90
2023-01-04T05:01:36.151Z,78.00
2023-01-04T05:04:04.248Z,78.10
2023-01-04T05:06:32.305Z,78.10
2023-01-04T05:09:00.236Z,78.10
2023-01-04T05:11:42.022Z,78.10
2023-01-04T05:14:10.862Z,78.10
2023-01-04T05:16:40.138Z,78.20
2023-01-04T05:19:08.076Z,78.20
2023-01-04T05:21:35.981Z,78.10
2023-01-04T05:24:03.940Z,78.10
2023-01-04T05:26:31.844Z,78.00
2023-01-04T05:28:59.797Z,78.00
2023-01-04T05:31:26.900Z,78.00
2023-01-04T05:33:56.329Z,78.00
2023-01-04T05:36:24.171Z,78.00
2023-01-04T05:38:52.031Z,77.90
2023-01-04T05:41:37.356Z,78.10
2023-01-04T05:44:05.217Z,78.20
2023-01-04T05:46:33.151Z,78.10
2023-01-04T05:49:02.458Z,78.10
2023-01-04T05:51:30.316Z,78.00
2023-01-04T05:53:58.160Z,78.10
2023-01-04T05:56:26.022Z,78.10
2023-01-04T05:58:53.863Z,78.00
2023-01-04T06:01:21.848Z,78.00
2023-01-04T06:03:49.865Z,78.00
2023-01-04T06:06:19.375Z,78.00
2023-01-04T06:08:47.254Z,78.10
2023-01-04T06:11:15.127Z,78.10
2023-01-04T06:13:42.959Z,78.00
2023-01-04T06:16:10.819Z,78.00
2023-01-04T06:18:38.737Z,78.00
2023-01-04T06:21:06.629Z,78.00
2023-01-04T06:23:35.810Z,77.90
2023-01-04T06:26:03.671Z,77.80
2023-01-04T06:28:35.580Z,77.90
2023-01-04T06:31:10.094Z,77.90
2023-01-04T06:33:38.181Z,78.00
2023-01-04T06:36:07.333Z,78.00
2023-01-04T06:38:49.074Z,78.10
2023-01-04T06:41:17.076Z,78.10
2023-01-04T06:43:45.370Z,78.10
2023-01-04T06:46:13.323Z,78.10
2023-01-04T06:48:41.265Z,78.00
2023-01-04T06:51:09.266Z,78.00
2023-01-04T06:53:37.157Z,78.00
2023-01-04T06:56:08.094Z,78.00
2023-01-04T06:58:36.071Z,78.00
2023-01-04T07:01:04.222Z,78.10
2023-01-04T07:03:32.465Z,78.10
2023-01-04T07:06:00.617Z,78.00
2023-01-04T07:08:28.490Z,78.00
2023-01-04T07:10:56.531Z,78.10
2023-01-04T07:13:26.087Z,78.10
2023-01-04T07:15:54.049Z,78.10
2023-01-04T07:18:22.820Z,78.20
2023-01-04T07:20:50.647Z,78.20
2023-01-04T07:23:18.495Z,78.20
2023-01-04T07:25:46.378Z,78.10
2023-01-04T07:28:34.782Z,78.20
2023-01-04T07:31:07.528Z,78.10
2023-01-04T07:33:35.599Z,78.20
2023-01-04T07:36:05.609Z,78.10
2023-01-04T07:38:35.022Z,78.20
2023-01-04T07:41:03.009Z,78.20
2023-01-04T07:43:30.890Z,78.20
2023-01-04T07:45:58.879Z,78.30
2023-01-04T07:48:29.605Z,78.30
2023-01-04T07:50:57.603Z,78.30
2023-01-04T07:53:25.488Z,78.20
2023-01-04T07:55:57.342Z,78.30
2023-01-04T07:58:25.467Z,78.20
2023-01-04T08:00:53.382Z,78.20
2023-01-04T08:03:21.248Z,78.20
2023-01-04T08:05:51.500Z,78.30
2023-01-04T08:08:19.342Z,78.40
2023-01-04T08:10:47.265Z,78.30
2023-01-04T08:13:15.096Z,78.30
2023-01-04T08:15:43.019Z,78.40
2023-01-04T08:18:11.223Z,78.40
2023-01-04T08:20:39.077Z,78.30
2023-01-04T08:23:08.244Z,78.30
2023-01-04T08:25:36.271Z,78.30
2023-01-04T08:28:04.446Z,78.40
2023-01-04T08:30:32.396Z,78.30
2023-01-04T08:33:00.476Z,78.10
2023-01-04T08:35:28.354Z,78.10
2023-01-04T08:38:13.124Z,78.30
2023-01-04T08:40:59.561Z,78.30
2023-01-04T08:43:29.803Z,78.30
2023-01-04T08:45:57.765Z,78.30
2023-01-04T08:48:25.731Z,78.30
2023-01-04T08:50:53.640Z,78.30
2023-01-04T08:53:21.590Z,78.30
2023-01-04T08:55:54.231Z,78.40
2023-01-04T08:58:22.457Z,78.30
2023-01-04T09:00:50.608Z,78.40
2023-01-04T09:03:18.542Z,78.40
2023-01-04T09:05:46.407Z,78.40
2023-01-04T09:08:14.364Z,78.50
2023-01-04T09:10:42.207Z,78.40
2023-01-04T09:13:11.512Z,78.50
2023-01-04T09:15:39.429Z,78.50
2023-01-04T09:20:56.183Z,78.50
2023-01-04T09:23:24.871Z,78.40
2023-01-04T09:25:52.717Z,78.50
2023-01-04T09:28:21.987Z,78.50
2023-01-04T09:30:49.929Z,78.40
2023-01-04T09:33:17.782Z,78.40
2023-01-04T09:35:45.620Z,78.40
2023-01-04T09:38:13.497Z,78.50
2023-01-04T09:40:53.330Z,78.50
2023-01-04T09:43:24.587Z,78.60
2023-01-04T09:46:00.034Z,78.60
2023-01-04T09:48:31.903Z,78.60
2023-01-04T09:51:02.240Z,78.60
2023-01-04T09:53:34.635Z,78.70
2023-01-04T09:56:09.263Z,78.70
2023-01-04T09:58:41.908Z,78.70
2023-01-04T10:01:15.800Z,78.70
2023-01-04T10:03:48.871Z,78.70
2023-01-04T10:06:16.862Z,78.70
2023-01-04T10:08:45.357Z,78.80
2023-01-04T10:11:26.537Z,79.10
2023-01-04T10:14:11.862Z,79.10
2023-01-04T10:22:46.759Z,79.20
2023-01-04T10:25:25.036Z,79.20
2023-01-04T10:28:03.872Z,79.20
2023-01-04T10:30:41.088Z,79.30
2023-01-04T10:33:13.558Z,79.30
2023-01-04T10:35:44.339Z,79.30
2023-01-04T10:38:18.894Z,79.30
2023-01-04T10:40:48.854Z,79.30
2023-01-04T10:43:26.414Z,79.30
2023-01-04T10:46:05.961Z,79.40
2023-01-04T10:48:39.435Z,79.40
2023-01-04T10:51:10.641Z,79.30
2023-01-04T10:53:45.623Z,79.40
2023-01-04T10:56:25.349Z,79.40
2023-01-04T10:59:04.511Z,79.40
2023-01-04T11:01:39.489Z,79.40
2023-01-04T11:04:14.646Z,79.40
2023-01-04T11:06:49.215Z,79.30
2023-01-04T11:09:25.550Z,79.30
2023-01-04T11:11:56.540Z,79.40
2023-01-04T11:14:25.595Z,79.40
2023-01-04T11:17:00.669Z,79.40
2023-01-04T11:19:29.506Z,79.50
2023-01-04T11:22:03.518Z,79.50
2023-01-04T11:24:34.137Z,79.60
2023-01-04T11:27:07.182Z,79.60
2023-01-04T11:29:41.543Z,79.60
2023-01-04T11:32:18.922Z,79.70
2023-01-04T11:34:49.684Z,79.70
2023-01-04T11:37:34.591Z,79.70
2023-01-04T11:40:18.867Z,79.70
2023-01-04T11:42:48.249Z,79.90
2023-01-04T11:45:25.692Z,79.90
2023-01-04T11:47:57.324Z,80.00
2023-01-04T11:50:37.842Z,80.00
2023-01-04T11:53:27.164Z,80.30
2023-01-04T11:56:10.845Z,80.50
2023-01-04T11:58:38.927Z,80.60
2023-01-04T12:01:10.471Z,80.50
2023-01-04T12:03:40.384Z,80.50
2023-01-04T12:06:16.335Z,80.30
2023-01-04T12:08:44.286Z,80.30
2023-01-04T12:11:21.772Z,80.20
2023-01-04T12:13:49.752Z,80.20
2023-01-04T12:16:26.950Z,80.10
2023-01-04T12:18:56.403Z,80.20
2023-01-04T12:21:26.266Z,80.00
2023-01-04T12:23:55.870Z,80.10
2023-01-04T12:26:24.255Z,80.10
2023-01-04T12:29:13.406Z,80.10
2023-01-04T12:31:42.679Z,80.00
2023-01-04T12:34:41.357Z,80.10
2023-01-04T12:37:09.431Z,79.80
2023-01-04T12:39:45.582Z,79.80
2023-01-04T12:42:17.796Z,80.00
2023-01-04T12:45:17.709Z,80.00
2023-01-04T12:48:09.551Z,80.00
2023-01-04T12:51:31.600Z,80.00
2023-01-04T12:54:02.505Z,79.90
2023-01-04T12:57:07.924Z,80.00
2023-01-04T12:59:38.057Z,80.10
2023-01-04T13:02:23.897Z,79.90
2023-01-04T13:05:09.685Z,79.90
2023-01-04T13:07:45.500Z,79.90
2023-01-04T13:10:22.757Z,79.80
2023-01-04T13:13:04.296Z,79.80
2023-01-04T13:15:46.865Z,79.70
2023-01-04T13:18:37.297Z,79.70
2023-01-04T13:21:20.444Z,79.90
2023-01-04T13:23:51.480Z,79.90
2023-01-04T13:26:38.696Z,79.90
2023-01-04T13:29:18.306Z,79.80
2023-01-04T13:31:52.784Z,79.90
2023-01-04T13:34:23.697Z,79.90
2023-01-04T13:37:01.219Z,80.00
2023-01-04T13:39:29.528Z,79.90
2023-01-04T13:41:58.537Z,79.90
2023-01-04T13:45:18.377Z,80.00
2023-01-04T13:47:39.935Z,79.90
2023-01-04T13:50:28.633Z,80.00
2023-01-04T13:53:08.095Z,80.00
2023-01-04T13:55:37.719Z,80.00
2023-01-04T13:58:07.774Z,80.10
2023-01-04T14:00:44.037Z,80.10
2023-01-04T14:03:29.888Z,80.20
2023-01-04T14:06:13.071Z,80.30
2023-01-04T14:08:46.547Z,80.30
2023-01-04T14:11:36.071Z,80.30
2023-01-04T14:14:04.777Z,80.50
2023-01-04T14:16:32.770Z,80.50
2023-01-04T14:19:43.292Z,80.80
2023-01-04T14:22:42.181Z,80.90
2023-01-04T14:25:36.994Z,80.90
2023-01-04T14:28:35.272Z,81.00
2023-01-04T14:31:36.264Z,80.70
2023-01-04T14:34:09.197Z,80.80
2023-01-04T14:36:40.919Z,80.80
2023-01-04T14:39:22.285Z,80.90
2023-01-04T14:41:57.343Z,81.10
2023-01-04T14:44:28.285Z,81.10
2023-01-04T14:46:58.569Z,81.10
2023-01-04T14:49:28.270Z,81.20
2023-01-04T14:51:59.013Z,81.30
2023-01-04T14:54:28.888Z,81.20
2023-01-04T14:56:58.772Z,81.30
2023-01-04T14:59:27.210Z,81.40
2023-01-04T15:01:56.937Z,81.40
2023-01-04T15:04:25.621Z,81.60
2023-01-04T15:06:56.206Z,81.60
2023-01-04T15:09:25.827Z,81.70
2023-01-04T15:11:53.996Z,81.80
2023-01-04T15:14:21.991Z,82.10
2023-01-04T15:16:50.538Z,81.90
2023-01-04T15:19:18.777Z,81.90
2023-01-04T15:21:46.886Z,81.90
2023-01-04T15:24:14.811Z,82.10
2023-01-04T15:26:44.410Z,82.20
2023-01-04T15:29:12.267Z,82.30
2023-01-04T15:31:41.595Z,82.20
2023-01-04T15:34:10.742Z,82.10
2023-01-04T15:36:41.101Z,82.10
2023-01-04T15:39:12.495Z,82.20
2023-01-04T15:41:58.154Z,82.10
2023-01-04T15:44:27.405Z,82.40
2023-01-04T15:46:55.758Z,82.20
2023-01-04T15:49:23.722Z,82.30
2023-01-04T15:51:51.837Z,82.50
2023-01-04T15:54:21.704Z,82.40
2023-01-04T15:56:49.932Z,82.40
2023-01-04T15:59:18.524Z,82.50
2023-01-04T16:01:48.438Z,82.40
2023-01-04T16:04:16.448Z,82.50
2023-01-04T16:06:44.391Z,82.60
2023-01-04T16:09:12.422Z,82.60
2023-01-04T16:12:00.970Z,82.70
2023-01-04T16:14:29.176Z,82.70
2023-01-04T16:16:58.495Z,82.80
2023-01-04T16:19:26.381Z,82.80
2023-01-04T16:21:54.409Z,83.00
2023-01-04T16:25:00.221Z,83.10
2023-01-04T16:27:10.597Z,83.10
2023-01-04T16:29:38.626Z,83.30
2023-01-04T16:32:08.311Z,83.20
2023-01-04T16:34:36.598Z,83.10
2023-01-04T16:37:04.960Z,83.10
2023-01-04T16:42:20.949Z,83.10
2023-01-04T16:44:48.864Z,83.10
2023-01-04T16:47:18.214Z,83.10
2023-01-04T16:49:46.273Z,83.10
2023-01-04T16:52:14.368Z,83.20
2023-01-04T16:54:42.246Z,83.10
2023-01-04T16:57:10.116Z,83.20
2023-01-04T16:59:38.110Z,83.30
2023-01-04T17:02:06.270Z,83.30
2023-01-04T17:04:35.704Z,83.30
2023-01-04T17:07:04.028Z,83.30
2023-01-04T17:09:31.960Z,83.30
2023-01-04T17:15:08.065Z,83.40
2023-01-04T17:17:38.603Z,83.40
2023-01-04T17:20:09.746Z,83.40
2023-01-04T17:22:37.681Z,83.40
2023-01-04T17:25:06.216Z,83.40
2023-01-04T17:27:36.128Z,83.20
2023-01-04T17:30:04.823Z,83.20
2023-01-04T17:32:32.781Z,83.40
2023-01-04T17:35:00.647Z,83.40
2023-01-04T17:37:29.848Z,83.40
2023-01-04T17:39:57.961Z,83.50
2023-01-04T17:42:25.889Z,83.50
2023-01-04T17:44:53.847Z,83.50
2023-01-04T17:47:21.756Z,83.70
2023-01-04T17:49:49.680Z,83.60
2023-01-04T17:52:24.357Z,83.70
2023-01-04T17:54:55.393Z,83.60
2023-01-04T17:57:23.322Z,83.50
2023-01-04T17:59:51.288Z,83.70
2023-01-04T18:02:19.400Z,83.60
2023-01-04T18:04:47.327Z,83.70
2023-01-04T18:07:15.218Z,83.50
2023-01-04T18:09:43.141Z,83.80
2023-01-04T18:12:12.499Z,83.90
2023-01-04T18:14:40.360Z,84.00
2023-01-04T18:17:08.340Z,83.80
2023-01-04T18:19:37.420Z,83.90
2023-01-04T18:22:07.209Z,83.90
2023-01-04T18:24:37.344Z,84.00
2023-01-04T18:27:23.753Z,84.00
2023-01-04T18:29:56.347Z,83.90
2023-01-04T18:32:25.694Z,83.80
2023-01-04T18:34:53.729Z,83.80
2023-01-04T18:37:22.061Z,83.80
2023-01-04T18:39:50.279Z,83.80
2023-01-04T18:42:18.491Z,83.80
2023-01-04T18:44:49.652Z,83.80
2023-01-04T18:47:20.955Z,83.80
2023-01-04T18:49:49.151Z,83.70
2023-01-04T18:52:17.235Z,83.70
2023-01-04T18:54:45.412Z,83.60
2023-01-04T18:57:13.554Z,83.60
2023-01-04T18:59:42.290Z,83.70
2023-01-04T19:02:16.551Z,83.90
2023-01-04T19:04:46.247Z,83.80
2023-01-04T19:07:14.166Z,83.70
2023-01-04T19:09:43.357Z,83.70
2023-01-04T19:12:11.808Z,83.60
2023-01-04T19:14:40.209Z,83.50
2023-01-04T19:17:08.466Z,83.40
2023-01-04T19:19:36.650Z,83.70
2023-01-04T19:22:05.977Z,83.80
2023-01-04T19:24:33.866Z,83.70
2023-01-04T19:27:03.225Z,83.70
2023-01-04T19:29:31.972Z,83.50
2023-01-04T19:31:59.854Z,83.50
2023-01-04T19:34:27.740Z,83.70
2023-01-04T19:36:55.699Z,83.50
2023-01-04T19:39:25.008Z,83.40
2023-01-04T19:41:52.927Z,83.20
2023-01-04T19:44:20.821Z,83.30
2023-01-04T19:46:49.200Z,83.30
2023-01-04T19:49:17.265Z,83.30
2023-01-04T19:51:47.065Z,83.30
2023-01-04T19:54:19.927Z,83.40
2023-01-04T19:56:54.640Z,83.40
2023-01-04T19:59:22.741Z,83.30
2023-01-04T20:01:50.881Z,83.40
2023-01-04T20:04:19.043Z,83.40
2023-01-04T20:06:46.952Z,83.40
2023-01-04T20:09:14.877Z,83.50
2023-01-04T20:11:42.706Z,83.50
2023-01-04T20:14:11.960Z,83.40
2023-01-04T20:16:39.895Z,83.50
2023-01-04T20:19:07.939Z,83.40
2023-01-04T20:21:35.807Z,83.40
2023-01-04T20:24:03.665Z,83.50
2023-01-04T20:26:31.580Z,83.50
2023-01-04T20:28:59.640Z,83.50
2023-01-04T20:31:28.900Z,83.50
2023-01-04T20:33:57.261Z,83.50
2023-01-04T20:36:29.280Z,83.50
2023-01-04T20:38:59.442Z,83.40
2023-01-04T20:41:29.726Z,83.50
2023-01-04T20:43:56.671Z,83.70
2023-01-04T20:46:27.031Z,83.70
2023-01-04T20:48:56.518Z,83.70
2023-01-04T20:51:26.483Z,83.70
2023-01-04T20:53:54.619Z,83.80
2023-01-04T20:56:24.565Z,83.80
2023-01-04T20:58:52.838Z,83.80
2023-01-04T21:01:22.688Z,83.90
2023-01-04T21:03:51.023Z,84.20
2023-01-04T21:06:21.529Z,84.00
2023-01-04T21:08:50.372Z,84.30
2023-01-04T21:11:18.320Z,84.20
2023-01-04T21:13:46.684Z,84.20
2023-01-04T21:16:15.271Z,84.20
2023-01-04T21:18:43.634Z,84.10
2023-01-04T21:21:15.183Z,84.20
2023-01-04T21:23:44.937Z,84.10
2023-01-04T21:26:15.770Z,84.10
2023-01-04T21:28:43.947Z,84.10
2023-01-04T21:31:13.458Z,84.10
2023-01-04T21:33:41.611Z,84.00
2023-01-04T21:36:15.008Z,84.00
2023-01-04T21:38:44.895Z,83.90
2023-01-04T21:41:15.121Z,83.80
2023-01-04T21:43:43.656Z,83.80
2023-01-04T21:46:14.734Z,83.80
2023-01-04T21:48:43.399Z,83.70
2023-01-04T21:51:11.890Z,83.70
2023-01-04T21:53:41.439Z,83.70
2023-01-04T21:56:13.572Z,83.70
2023-01-04T21:58:41.584Z,83.70
2023-01-04T22:01:10.958Z,83.70
2023-01-04T22:03:39.262Z,83.60
2023-01-04T22:06:08.050Z,83.60
2023-01-04T22:08:36.409Z,83.70
2023-01-04T22:11:04.906Z,83.60
2023-01-04T22:13:34.217Z,83.60
2023-01-04T22:16:06.504Z,83.60
2023-01-04T22:18:34.568Z,83.60
2023-01-04T22:21:03.773Z,83.60
2023-01-04T22:23:32.064Z,83.70
2023-01-04T22:26:00.541Z,83.60
2023-01-04T22:28:33.251Z,83.60
2023-01-04T22:31:07.654Z,83.60
2023-01-04T22:33:36.057Z,83.50
2023-01-04T22:36:06.227Z,83.50
2023-01-04T22:38:35.933Z,83.50
2023-01-04T22:41:07.217Z,83.50
2023-01-04T22:43:35.665Z,83.40
2023-01-04T22:46:07.864Z,83.40
2023-01-04T22:48:36.187Z,83.40
2023-01-04T22:51:07.455Z,83.40
2023-01-04T22:53:35.691Z,83.40
2023-01-04T22:56:23.199Z,83.20
2023-01-04T22:58:54.388Z,83.20
2023-01-04T23:01:26.223Z,83.50
2023-01-04T23:03:55.035Z,83.60
2023-01-04T23:06:24.640Z,83.60
2023-01-04T23:08:57.118Z,83.50
2023-01-04T23:11:25.552Z,83.30
2023-01-04T23:13:53.664Z,83.30
2023-01-04T23:16:27.850Z,83.40
2023-01-04T23:18:57.315Z,83.50
2023-01-04T23:21:25.331Z,83.50
2023-01-04T23:23:53.182Z,83.50
2023-01-04T23:26:23.362Z,83.60
2023-01-04T23:28:51.849Z,83.60
2023-01-04T23:31:22.406Z,83.50
2023-01-04T23:33:53.695Z,83.70
2023-01-04T23:36:26.945Z,83.60
2023-01-04T23:38:56.759Z,83.80
2023-01-04T23:41:44.238Z,83.90
2023-01-04T23:46:52.876Z,84.00
2023-01-04T23:49:20.999Z,84.00
2023-01-04T23:51:50.370Z,84.20
2023-01-04T23:54:19.961Z,84.20
2023-01-04T23:56:48.103Z,84.30
2023-01-04T23:59:16.012Z,84.30
